Stations météo

réclame
Mon MeteoGroup
Beitem, Belgique (6414): Température de l'air & dewpoint: 14.07.2018 22:00:00 - 20.07.2018 22:00:00 (CEST)Beitem, Belgique (6414): Vitesse du vent & gusts: 14.07.2018 22:00:00 - 20.07.2018 22:00:00 (CEST)Beitem, Belgique (6414): Direction du vent: 14.07.2018 22:00:00 - 20.07.2018 22:00:00 (CEST)Beitem, Belgique (6414): reduced air pressure: 14.07.2018 22:00:00 - 20.07.2018 22:00:00 (CEST)Beitem, Belgique (6414): Ensoleillement: 14.07.2018 22:00:00 - 20.07.2018 22:00:00 (CEST)Beitem, Belgique (6414): Quantités de précipitations: 14.07.2018 22:00:00 - 20.07.2018 22:00:00 (CEST)
Date & Time tt [°C] td [°C] ff [km/h] ff [knt] fx [km/h] fx [knt] dd ppp [hPa] sd [min] rr [mm]
20.07.2018 22:00:00 19,5 11,4 7 4 18 10 NNE 1013,2 0 0,0
20.07.2018 21:00:00 19,9 12,5 8 5 23 12 NNE 1013,2 0 0,0
20.07.2018 20:00:00 20,2 13,0 7 4 17 9 N 1013,2 0 0,0
20.07.2018 19:00:00 21,4 8,9 13 7 18 10 N 1013,5 0 0,0
20.07.2018 18:00:00 21,3 10,1 10 5 17 9 N 1014,1 0 0,0
20.07.2018 17:00:00 20,7 14,5 10 5 16 9 WNW 1014,7 0 0,0
20.07.2018 16:00:00 20,8 14,7 12 7 19 11 W 1015,2 0 0,0
20.07.2018 15:00:00 21,9 15,2 11 6 21 12 W 1015,1 0 0,0
20.07.2018 14:00:00 23,4 10,7 7 4 10 6 NNW 1015,4 0 0,0
20.07.2018 13:00:00 23,7 8,6 5 3 14 8 N 1015,3 0 0,0
20.07.2018 12:00:00 23,9 9,5 8 4 14 8 NNE 1015,2 25 0,0
20.07.2018 11:00:00 - - - - - - - - - -
20.07.2018 10:00:00 - - - - - - - - - -
20.07.2018 09:00:00 19,4 14,1 8 4 11 6 ENE 1015,9 38 0,0
20.07.2018 08:00:00 17,2 14,0 4 2 7 4 NNE 1015,8 40 0,0
20.07.2018 07:00:00 14,2 13,1 4 2 5 3 W 1016,2 0 0,0
20.07.2018 06:00:00 12,9 11,7 4 2 11 6 SSE 1016,4 0 0,0
20.07.2018 05:00:00 13,9 12,2 5 3 7 4 ENE 1016,3 0 0,0
20.07.2018 04:00:00 15,4 12,8 4 2 12 6 E 1016,7 0 0,0
20.07.2018 03:00:00 15,2 12,4 8 4 9 5 NE 1016,8 0 0,0
20.07.2018 02:00:00 15,8 12,5 7 4 10 5 NE 1017,3 0 0,0
20.07.2018 01:00:00 16,8 12,0 4 2 9 5 NE 1017,9 0 0,0
20.07.2018 00:00:00 17,3 10,9 4 2 12 6 E 1017,8 0 0,0
19.07.2018 23:00:00 19,5 10,0 8 4 16 9 NE 1017,7 0 0,0
19.07.2018 22:00:00 21,0 8,5 9 5 18 10 NNE 1017,7 20 0,0
19.07.2018 21:00:00 22,6 8,3 13 7 22 12 NNE 1017,8 47 0,0
19.07.2018 20:00:00 24,2 8,5 11 6 23 12 NNE 1017,7 60 0,0
19.07.2018 19:00:00 25,3 6,5 13 7 27 15 NNE 1017,6 60 0,0
19.07.2018 18:00:00 25,8 7,5 15 8 30 16 NNE 1017,9 60 0,0
19.07.2018 17:00:00 26,0 9,2 14 8 - - NNE 1018,3 - -
19.07.2018 16:00:00 26,2 10,8 9 5 24 13 NNE 1018,5 60 0,0
19.07.2018 15:00:00 25,5 10,1 11 6 22 12 ENE 1018,7 - -
19.07.2018 14:00:00 24,5 10,2 11 6 20 11 NE 1019,1 47 0,0
19.07.2018 13:00:00 24,1 9,9 11 6 17 9 N 1019,4 60 0,0
19.07.2018 12:00:00 23,5 9,3 9 5 19 10 N 1019,5 60 0,0
19.07.2018 11:00:00 22,5 10,0 9 5 14 7 N 1019,4 60 0,0
19.07.2018 10:00:00 21,1 12,6 7 4 11 6 NNE 1019,8 60 0,0
19.07.2018 09:00:00 19,4 14,8 7 4 9 5 ENE 1019,9 60 0,0
19.07.2018 08:00:00 16,8 14,8 4 2 5 3 NE 1020,2 60 0,0
19.07.2018 07:00:00 12,0 11,7 0 0 4 2 N 1019,9 9 0,0
19.07.2018 06:00:00 11,5 11,3 4 2 3 2 NW 1019,7 0 0,0
19.07.2018 05:00:00 12,3 11,9 4 2 4 2 NNW 1019,9 0 0,0
19.07.2018 04:00:00 12,9 12,5 4 2 6 3 NNE 1019,9 0 0,0
19.07.2018 03:00:00 13,7 12,5 4 2 7 4 NNE 1019,8 0 0,0
19.07.2018 02:00:00 14,5 12,5 4 2 8 5 N 1019,9 0 0,0
19.07.2018 01:00:00 16,5 13,3 5 3 11 6 NNE 1019,8 0 0,0
19.07.2018 00:00:00 17,2 12,8 5 3 8 4 NNE 1019,6 0 0,0
18.07.2018 23:00:00 16,2 11,2 4 2 5 3 N 1019,5 0 0,0
18.07.2018 22:00:00 20,5 11,1 5 3 16 9 NNE 1019,1 17 0,0
18.07.2018 21:00:00 22,4 11,1 11 6 21 12 NNW 1019,0 60 0,0
18.07.2018 20:00:00 23,2 11,5 14 8 28 15 NNW 1018,9 59 0,0
18.07.2018 19:00:00 24,5 10,6 17 9 24 13 N 1018,6 58 0,0
18.07.2018 18:00:00 24,2 9,0 4 2 16 9 NNW 1018,8 19 0,0
18.07.2018 17:00:00 24,8 9,7 11 6 23 12 NW 1018,9 31 0,0
18.07.2018 16:00:00 23,4 10,5 7 4 17 9 NNW 1019,0 4 0,0
18.07.2018 15:00:00 23,3 10,9 11 6 26 14 NNW 1019,3 2 0,0
18.07.2018 14:00:00 23,4 9,8 7 4 23 12 NW 1019,3 22 0,0
18.07.2018 13:00:00 23,0 10,8 10 5 21 11 WNW 1019,5 42 0,0
18.07.2018 12:00:00 22,0 12,0 9 5 18 10 W 1019,5 44 0,0
18.07.2018 11:00:00 21,1 13,1 9 5 17 9 W 1019,9 60 0,0
18.07.2018 10:00:00 18,7 13,7 6 3 13 7 W 1019,8 60 0,0
18.07.2018 09:00:00 16,4 13,3 8 5 15 8 SW 1019,8 60 0,0
18.07.2018 08:00:00 14,6 12,4 7 4 13 7 SSW 1019,5 60 0,0
18.07.2018 07:00:00 12,8 11,4 6 4 10 6 SSW 1019,4 34 0,0
18.07.2018 06:00:00 12,0 10,7 4 2 8 4 S 1019,2 0 0,0
18.07.2018 05:00:00 12,6 11,1 7 4 10 5 SSW 1019,0 0 0,0
18.07.2018 04:00:00 12,9 10,8 4 2 14 8 SSW 1019,0 0 0,0
18.07.2018 03:00:00 13,7 10,9 8 5 11 6 SSW 1019,4 0 0,0
18.07.2018 02:00:00 13,9 10,4 7 4 9 5 SSW 1019,0 0 0,0
18.07.2018 01:00:00 14,8 10,4 6 3 7 4 SSW 1019,0 0 0,0
18.07.2018 00:00:00 16,1 10,4 4 2 10 5 WSW 1018,6 0 0,0
17.07.2018 23:00:00 18,0 10,3 9 5 19 10 W 1018,6 0 0,0
17.07.2018 22:00:00 19,7 9,9 12 6 23 12 WNW 1018,2 40 0,0
17.07.2018 21:00:00 21,9 8,7 15 8 24 13 W 1017,9 60 0,0
17.07.2018 20:00:00 22,9 8,9 18 10 29 15 WSW 1017,3 43 0,0
17.07.2018 19:00:00 23,3 10,3 12 6 29 15 WNW 1017,2 35 0,0
17.07.2018 18:00:00 24,0 8,8 12 7 33 18 NW 1017,2 38 0,0
17.07.2018 17:00:00 23,4 9,0 13 7 36 19 W 1017,2 40 0,0
17.07.2018 16:00:00 23,7 9,3 21 12 35 19 NW 1017,3 57 0,0
17.07.2018 15:00:00 24,0 10,1 18 10 40 22 WNW 1017,2 53 0,0
17.07.2018 14:00:00 23,8 9,7 22 12 37 20 W 1017,1 59 0,0
17.07.2018 13:00:00 23,5 8,7 24 13 39 21 W 1017,1 60 0,0
17.07.2018 12:00:00 22,9 9,9 20 11 34 18 WSW 1016,4 60 0,0
17.07.2018 11:00:00 22,4 10,7 19 11 35 19 WSW 1016,2 60 0,0
17.07.2018 10:00:00 21,5 11,6 19 10 29 16 W 1016,1 60 0,0
17.07.2018 09:00:00 20,1 14,8 14 8 29 16 W 1015,6 59 0,0
17.07.2018 08:00:00 17,5 15,9 7 4 23 12 W 1015,5 20 0,0
17.07.2018 07:00:00 15,6 14,7 8 4 14 7 WSW 1014,9 0 0,0
17.07.2018 06:00:00 15,1 13,4 7 4 13 7 SW 1014,5 0 0,0
17.07.2018 05:00:00 15,0 12,3 9 5 12 7 SSW 1014,5 0 0,0
17.07.2018 04:00:00 15,3 11,4 9 5 12 7 SW 1014,5 0 0,0
17.07.2018 03:00:00 16,3 11,0 9 5 12 6 SW 1014,9 0 0,0
17.07.2018 02:00:00 17,8 11,2 8 4 11 6 SW 1014,5 0 0,0
17.07.2018 01:00:00 18,7 12,9 6 3 10 5 S 1014,6 0 0,0
17.07.2018 00:00:00 19,6 13,7 7 4 11 6 W 1014,6 0 0,0
16.07.2018 23:00:00 20,4 13,6 5 3 17 9 NW 1014,2 0 0,0
16.07.2018 22:00:00 23,0 12,2 10 6 14 7 NNW 1013,7 17 0,0
16.07.2018 21:00:00 25,2 12,7 6 4 13 7 NNE 1013,1 17 0,0
16.07.2018 20:00:00 25,9 12,7 7 4 16 9 NW 1012,7 0 0,0
16.07.2018 19:00:00 27,7 11,5 6 3 14 8 ENE 1012,2 19 0,0
16.07.2018 18:00:00 27,5 12,2 10 6 23 12 NNW 1012,6 17 0,0
16.07.2018 17:00:00 27,8 10,8 14 8 29 15 WNW 1012,6 0 0,0
16.07.2018 16:00:00 28,7 11,8 22 12 31 17 WNW 1012,6 27 0,0
16.07.2018 15:00:00 29,8 9,1 7 4 22 12 S 1012,7 57 0,0
16.07.2018 14:00:00 29,3 8,1 7 4 20 11 S 1013,1 59 0,0
16.07.2018 13:00:00 29,1 10,1 7 4 15 8 SSE 1013,3 60 0,0
16.07.2018 12:00:00 27,6 11,6 5 3 9 5 SSE 1013,7 60 0,0
16.07.2018 11:00:00 25,1 13,0 4 2 6 4 S 1013,8 49 0,0
16.07.2018 10:00:00 22,5 14,8 5 3 7 4 E 1014,0 13 0,0
16.07.2018 09:00:00 21,0 14,7 4 2 7 4 E 1013,9 16 0,0
16.07.2018 08:00:00 18,6 14,0 4 2 5 3 NE 1014,1 2 0,0
16.07.2018 07:00:00 17,2 13,5 4 2 10 5 NW 1014,1 23 0,0
16.07.2018 06:00:00 15,6 13,3 9 5 12 7 W 1014,0 0 0,0
16.07.2018 05:00:00 15,7 12,9 4 2 7 4 WNW 1014,2 0 0,0
16.07.2018 04:00:00 16,1 13,0 4 2 5 3 WNW 1014,2 0 0,0
16.07.2018 03:00:00 17,4 13,1 4 2 4 2 NNW 1014,6 0 0,0
16.07.2018 02:00:00 17,7 12,8 4 2 5 3 N 1014,8 0 0,0
16.07.2018 01:00:00 19,3 13,1 4 2 5 3 NNE 1015,1 0 0,0
16.07.2018 00:00:00 20,5 11,7 4 2 10 5 NE 1015,3 0 0,0
15.07.2018 23:00:00 22,7 11,2 5 3 13 7 NNE 1015,2 0 0,0
15.07.2018 22:00:00 24,7 9,9 8 5 18 10 NNE 1015,0 17 0,0
15.07.2018 21:00:00 26,6 9,4 13 7 24 13 NNE 1014,8 60 0,0
15.07.2018 20:00:00 27,9 10,3 14 8 31 17 NNE 1014,4 60 0,0
15.07.2018 19:00:00 28,1 10,4 16 9 31 17 NNE 1014,5 60 0,0
15.07.2018 18:00:00 28,9 10,8 19 10 32 18 N 1014,6 54 0,0
15.07.2018 17:00:00 29,0 9,0 11 6 23 12 NE 1015,1 47 0,0
15.07.2018 16:00:00 29,4 8,9 11 6 19 10 ENE 1015,3 60 0,0
15.07.2018 15:00:00 28,7 9,0 8 4 22 12 ESE 1015,8 60 0,0
15.07.2018 14:00:00 28,4 9,3 14 8 23 13 E 1016,4 60 0,0
15.07.2018 13:00:00 27,4 10,0 9 5 17 9 N 1016,9 60 0,0
15.07.2018 12:00:00 26,7 10,5 6 4 16 8 E 1017,2 60 0,0
15.07.2018 11:00:00 25,2 13,4 6 3 9 5 E 1017,5 60 0,0
15.07.2018 10:00:00 22,9 13,2 7 4 10 5 E 1017,7 60 0,0
15.07.2018 09:00:00 20,5 13,8 5 3 10 6 E 1017,7 60 0,0
15.07.2018 08:00:00 18,2 13,8 7 4 11 6 E 1017,7 60 0,0
15.07.2018 07:00:00 16,2 13,2 6 3 8 4 E 1017,6 40 0,0
15.07.2018 06:00:00 14,5 13,0 6 3 6 4 NE 1017,4 0 0,0
15.07.2018 05:00:00 14,7 13,5 4 2 6 4 E 1017,8 0 0,0
15.07.2018 04:00:00 14,8 13,6 4 2 6 3 NE 1018,1 0 0,0
15.07.2018 03:00:00 16,7 14,5 5 3 8 4 E 1018,5 0 0,0
15.07.2018 02:00:00 17,2 14,3 7 4 10 5 E 1018,5 0 0,0
15.07.2018 01:00:00 18,2 14,4 8 4 15 8 ENE 1018,8 0 0,0
15.07.2018 00:00:00 19,3 14,6 11 6 16 9 NE 1018,7 0 0,0
14.07.2018 23:00:00 20,8 15,2 8 5 16 9 NNE 1018,8 0 0,0
14.07.2018 22:00:00 22,7 14,8 12 6 22 12 NE 1018,4 36 0,0

tt = Température de l'air
td = dewpoint
ff = Vitesse du vent
fx = gusts
dd = Direction du vent
ppp = reduced air pressure
sd = Ensoleillement
rr = Quantités de précipitations

stations d'obs. à proximité